Karlovac, Croatia

16:32 CET dnia 25-marzec-2017 (GMT +0100)
IHRVATSK2 | | Change Station

Wysokość 390 ft 45.46 °N, 15.54 °E | Updated 1 minute ago

pogodnie
pogodnie
62.2 ° F
Odczuwalna 62.2 ° F
Płn.
0.0
Wiatr zmienny Wiatr od północny
Gusts 0.0 mph

Dziś
Wysoka -- | Niska -- ° F
--% Prawdop. opadów
Wczoraj
Wysoka -- | Niska -- ° F
Precip. -- cali
Ciśnienie 30.15 cali
Widzialność -9999.0 mil
chmury
Punkt rosy 42 ° F
Wilgotność 48%
Opady deszczu 0.00 cali
grubość pokrywy śnieżnej Niedostępne.
5:51 AM 6:16 PM
Zmniejszający się sierp Księżyca, 8% visible
METAR LDZA 251530Z 08007KT 050V150 CAVOK 16/02 Q1021 NOSIG
Ciśnienie 30.15 cali
Widzialność -9999.0 mil
chmury
Punkt rosy 42 ° F
Wilgotność 48%
Opady deszczu 0.00 cali
grubość pokrywy śnieżnej Niedostępne.
5:51 AM 6:16 PM
Zmniejszający się sierp Księżyca, 8% visible
METAR LDZA 251530Z 08007KT 050V150 CAVOK 16/02 Q1021 NOSIG

Get Severe Weather Alerts

Thanks for signing up!

Be on the lookout for a verification email in your inbox.

You'll start receiving the daily forecast at 8 AM.

×

10-Day Weather Forecast

×

Almanac

Astronomia

Mar. 25, 2017 Wschód Zachów
Aktualny czas
Zmierzch cywilny
Zmierzch żeglarski
świt/zmierzch astronomiczny
Księżyc
całkowite oświetlenie
Długość dnia
Tomorrow will be .
, % of the Moon is Illuminated

Dzisiejsze ekstrema

Country Highs Country Lows

Community

WunderPhotos

Upload Photos

1,962,540 zdjęcia zostały przesłane!

WunderBlog® & News

Nearby

Jakość powietrza

  Jakość powietrza czynnik AQ Zanieczyszczenie
Not available.

Głębokość pokrywy śnieżnej

Station Depth n.p.m.

Aktywność sejsmiczna

Miejscowość Distance Mag. Time & Date
Minimum magnitude displayed is 2.5.

Aktywność sejsmiczna

Miejscowość Distance Mag. Time & Date
Minimum magnitude displayed is 2.5.

Temperatury wody na wybrzeżu

Miejsce Temperatura

Stations

Najbliższa stacja pogodowa

Lokalizacja stacji Temp. czynnik chłodzący wiatru Punkt rosy Wilgotność Wiatr Precip. Wysokość Uaktualniono Typ